This is the latest recevied weather packets stored in our database for station/object K1AWR. If no packets are shown the sender has not sent any weather packets the latest 1 day(s).
| Time | Temp. | Humidity | Pressure | Rain* | Wind** | Luminosity | Snow |
|---|---|---|---|---|---|---|---|
| 1778001101 | 27.22° C | 44% | 1008.5 hPa | 0 mm | 1.79 m/s, 185° | 767 W/m² | - |
| 1778000798 | 27.22° C | 44% | 1008.5 hPa | 0 mm | 0 m/s | 768 W/m² | - |
| 1778000495 | 27.22° C | 44% | 1008.6 hPa | 0 mm | 1.79 m/s, 145° | 761 W/m² | - |
| 1778000195 | 26.11° C | 47% | 1008.9 hPa | 0 mm | 0.45 m/s, 206° | 770 W/m² | - |
| 1777999891 | 26.11° C | 46% | 1008.7 hPa | 0 mm | 1.34 m/s, 137° | 770 W/m² | - |
| 1777999586 | 26.67° C | 43% | 1008.9 hPa | 0 mm | 0.89 m/s, 218° | 771 W/m² | - |
| 1777999284 | 26.11° C | 49% | 1009.2 hPa | 0 mm | 0.89 m/s, 154° | 770 W/m² | - |
| 1777998983 | 26.67° C | 44% | 1009.3 hPa | 0 mm | 0.45 m/s, 171° | 769 W/m² | - |
| 1777998680 | 25.56° C | 49% | 1009.3 hPa | 0 mm | 0.89 m/s, 212° | 768 W/m² | - |
| 1777998377 | 25° C | 48% | 1009.4 hPa | 0 mm | 2.68 m/s, 152° | 766 W/m² | - |
| 1777998075 | 25° C | 47% | 1009.4 hPa | 0 mm | 1.34 m/s, 200° | 760 W/m² | - |
| 1777997772 | 25° C | 50% | 1009.4 hPa | 0 mm | 1.34 m/s, 155° | 759 W/m² | - |
| 1777997469 | 25° C | 48% | 1009.5 hPa | 0 mm | 2.24 m/s, 155° | 754 W/m² | - |
| 1777997167 | 24.44° C | 50% | 1009.7 hPa | 0 mm | 0 m/s | 660 W/m² | - |
| 1777996864 | 25° C | 47% | 1009.7 hPa | 0 mm | 1.34 m/s, 140° | 716 W/m² | - |
| 1777996560 | 24.44° C | 51% | 1009.7 hPa | 0 mm | 1.79 m/s, 218° | 706 W/m² | - |
| 1777996256 | 24.44° C | 50% | 1009.7 hPa | 0 mm | 0.89 m/s, 307° | 479 W/m² | - |
| 1777995952 | 24.44° C | 51% | 1009.7 hPa | 0 mm | 0.45 m/s, 244° | 534 W/m² | - |
| 1777995649 | 23.33° C | 52% | 1010 hPa | 0 mm | 1.34 m/s, 167° | 291 W/m² | - |
| 1777995346 | 23.33° C | 53% | 1010.2 hPa | 0 mm | 1.34 m/s, 201° | 256 W/m² | - |
| 1777995043 | 23.33° C | 54% | 1010.2 hPa | 0 mm | 1.34 m/s, 152° | 188 W/m² | - |
| 1777994740 | 22.78° C | 53% | 1010.3 hPa | 0 mm | 0.45 m/s, 303° | 312 W/m² | - |
| 1777994436 | 22.78° C | 54% | 1010.4 hPa | 0 mm | 1.79 m/s, 153° | 364 W/m² | - |
| 1777994131 | 22.78° C | 54% | 1010.5 hPa | 0 mm | 0.89 m/s, 124° | 105 W/m² | - |
| 1777993829 | 22.22° C | 55% | 1010.4 hPa | 0 mm | 0.89 m/s, 208° | 368 W/m² | - |
* Rain latest hour (hover to see other rain measurements)
** Current wind speed in m/s (hover to see current wind gust speed)